sensor_id;sensor_type;location;lat;lon;timestamp;P1;durP1;ratioP1;P2;durP2;ratioP2
57730;SDS011;43570;47.476;19.040;2023-04-15T00:00:21;7.70;;;6.85;;
57730;SDS011;43570;47.476;19.040;2023-04-15T00:02:47;7.57;;;6.78;;
57730;SDS011;43570;47.476;19.040;2023-04-15T00:05:12;8.63;;;6.87;;
57730;SDS011;43570;47.476;19.040;2023-04-15T00:07:37;7.70;;;6.90;;
57730;SDS011;43570;47.476;19.040;2023-04-15T00:10:04;7.85;;;6.45;;
57730;SDS011;43570;47.476;19.040;2023-04-15T00:12:30;7.37;;;6.40;;
57730;SDS011;43570;47.476;19.040;2023-04-15T00:14:55;8.10;;;6.45;;
57730;SDS011;43570;47.476;19.040;2023-04-15T00:17:22;9.23;;;7.32;;
57730;SDS011;43570;47.476;19.040;2023-04-15T00:19:48;7.80;;;6.85;;
57730;SDS011;43570;47.476;19.040;2023-04-15T00:22:13;8.20;;;7.12;;
57730;SDS011;43570;47.476;19.040;2023-04-15T00:24:39;8.00;;;6.40;;
57730;SDS011;43570;47.476;19.040;2023-04-15T00:27:04;10.20;;;7.32;;
57730;SDS011;43570;47.476;19.040;2023-04-15T00:29:30;9.30;;;7.40;;
57730;SDS011;43570;47.476;19.040;2023-04-15T00:31:56;8.60;;;6.50;;
57730;SDS011;43570;47.476;19.040;2023-04-15T00:34:21;7.20;;;6.50;;
57730;SDS011;43570;47.476;19.040;2023-04-15T00:36:49;7.65;;;6.85;;
57730;SDS011;43570;47.476;19.040;2023-04-15T00:39:15;8.43;;;6.78;;
57730;SDS011;43570;47.476;19.040;2023-04-15T00:41:41;7.62;;;6.15;;
57730;SDS011;43570;47.476;19.040;2023-04-15T00:44:10;8.05;;;7.18;;
57730;SDS011;43570;47.476;19.040;2023-04-15T00:46:36;7.47;;;6.75;;
57730;SDS011;43570;47.476;19.040;2023-04-15T00:49:06;8.73;;;7.10;;
57730;SDS011;43570;47.476;19.040;2023-04-15T00:51:34;7.60;;;6.80;;
57730;SDS011;43570;47.476;19.040;2023-04-15T00:54:03;7.82;;;6.93;;
57730;SDS011;43570;47.476;19.040;2023-04-15T00:56:29;8.45;;;7.32;;
57730;SDS011;43570;47.476;19.040;2023-04-15T00:58:55;8.27;;;7.45;;
57730;SDS011;43570;47.476;19.040;2023-04-15T01:01:21;8.73;;;7.82;;
57730;SDS011;43570;47.476;19.040;2023-04-15T01:03:47;10.82;;;8.55;;
57730;SDS011;43570;47.476;19.040;2023-04-15T01:06:14;9.50;;;8.50;;
57730;SDS011;43570;47.476;19.040;2023-04-15T01:08:39;11.55;;;10.35;;
57730;SDS011;43570;47.476;19.040;2023-04-15T01:11:05;12.65;;;11.35;;
57730;SDS011;43570;47.476;19.040;2023-04-15T01:13:31;12.30;;;10.82;;
57730;SDS011;43570;47.476;19.040;2023-04-15T01:15:58;11.32;;;10.23;;
57730;SDS011;43570;47.476;19.040;2023-04-15T01:18:23;11.85;;;10.68;;
57730;SDS011;43570;47.476;19.040;2023-04-15T01:20:48;11.90;;;10.70;;
57730;SDS011;43570;47.476;19.040;2023-04-15T01:23:14;11.50;;;10.32;;
57730;SDS011;43570;47.476;19.040;2023-04-15T01:25:41;12.82;;;11.27;;
57730;SDS011;43570;47.476;19.040;2023-04-15T01:28:07;12.05;;;10.85;;
57730;SDS011;43570;47.476;19.040;2023-04-15T01:30:34;11.90;;;10.70;;
57730;SDS011;43570;47.476;19.040;2023-04-15T01:32:59;11.40;;;10.20;;
57730;SDS011;43570;47.476;19.040;2023-04-15T01:35:25;11.60;;;10.15;;
57730;SDS011;43570;47.476;19.040;2023-04-15T01:37:51;11.48;;;10.38;;
57730;SDS011;43570;47.476;19.040;2023-04-15T01:40:18;11.63;;;10.43;;
57730;SDS011;43570;47.476;19.040;2023-04-15T01:42:44;11.23;;;10.13;;
57730;SDS011;43570;47.476;19.040;2023-04-15T01:45:10;10.93;;;9.82;;
57730;SDS011;43570;47.476;19.040;2023-04-15T01:47:36;11.52;;;10.30;;
57730;SDS011;43570;47.476;19.040;2023-04-15T01:50:01;12.07;;;9.85;;
57730;SDS011;43570;47.476;19.040;2023-04-15T01:52:27;11.20;;;10.00;;
57730;SDS011;43570;47.476;19.040;2023-04-15T01:54:52;10.98;;;9.77;;
57730;SDS011;43570;47.476;19.040;2023-04-15T01:57:18;10.48;;;9.25;;
57730;SDS011;43570;47.476;19.040;2023-04-15T01:59:43;10.60;;;9.50;;
57730;SDS011;43570;47.476;19.040;2023-04-15T02:02:09;11.52;;;9.60;;
57730;SDS011;43570;47.476;19.040;2023-04-15T02:04:34;11.45;;;10.35;;
57730;SDS011;43570;47.476;19.040;2023-04-15T02:06:59;11.12;;;10.02;;
57730;SDS011;43570;47.476;19.040;2023-04-15T02:09:25;10.57;;;9.48;;
57730;SDS011;43570;47.476;19.040;2023-04-15T02:11:51;9.43;;;8.45;;
57730;SDS011;43570;47.476;19.040;2023-04-15T02:14:18;10.25;;;9.20;;
57730;SDS011;43570;47.476;19.040;2023-04-15T02:16:43;10.68;;;9.57;;
57730;SDS011;43570;47.476;19.040;2023-04-15T02:19:09;11.15;;;10.05;;
57730;SDS011;43570;47.476;19.040;2023-04-15T02:21:34;9.95;;;8.95;;
57730;SDS011;43570;47.476;19.040;2023-04-15T02:24:00;11.02;;;9.93;;
57730;SDS011;43570;47.476;19.040;2023-04-15T02:26:26;12.10;;;9.45;;
57730;SDS011;43570;47.476;19.040;2023-04-15T02:28:52;9.93;;;8.88;;
57730;SDS011;43570;47.476;19.040;2023-04-15T02:31:17;11.05;;;9.38;;
57730;SDS011;43570;47.476;19.040;2023-04-15T02:33:43;10.60;;;9.13;;
57730;SDS011;43570;47.476;19.040;2023-04-15T02:36:08;10.15;;;9.15;;
57730;SDS011;43570;47.476;19.040;2023-04-15T02:38:35;10.20;;;9.20;;
57730;SDS011;43570;47.476;19.040;2023-04-15T02:41:02;9.38;;;8.48;;
57730;SDS011;43570;47.476;19.040;2023-04-15T02:43:27;10.00;;;8.90;;
57730;SDS011;43570;47.476;19.040;2023-04-15T02:45:52;9.68;;;8.68;;
57730;SDS011;43570;47.476;19.040;2023-04-15T02:48:18;10.82;;;9.13;;
57730;SDS011;43570;47.476;19.040;2023-04-15T02:50:44;11.52;;;9.38;;
57730;SDS011;43570;47.476;19.040;2023-04-15T02:53:10;10.65;;;9.55;;
57730;SDS011;43570;47.476;19.040;2023-04-15T02:55:37;10.50;;;9.10;;
57730;SDS011;43570;47.476;19.040;2023-04-15T02:58:02;9.82;;;8.82;;
57730;SDS011;43570;47.476;19.040;2023-04-15T03:00:28;10.07;;;8.57;;
57730;SDS011;43570;47.476;19.040;2023-04-15T03:03:01;10.38;;;8.65;;
57730;SDS011;43570;47.476;19.040;2023-04-15T03:05:27;11.50;;;8.80;;
57730;SDS011;43570;47.476;19.040;2023-04-15T03:07:53;11.18;;;9.15;;
57730;SDS011;43570;47.476;19.040;2023-04-15T03:10:18;10.70;;;8.80;;
57730;SDS011;43570;47.476;19.040;2023-04-15T03:12:44;11.25;;;9.95;;
57730;SDS011;43570;47.476;19.040;2023-04-15T03:15:09;11.30;;;9.25;;
57730;SDS011;43570;47.476;19.040;2023-04-15T03:17:35;11.23;;;9.07;;
57730;SDS011;43570;47.476;19.040;2023-04-15T03:20:01;11.82;;;10.55;;
57730;SDS011;43570;47.476;19.040;2023-04-15T03:22:27;11.00;;;9.52;;
57730;SDS011;43570;47.476;19.040;2023-04-15T03:24:53;10.00;;;8.90;;
57730;SDS011;43570;47.476;19.040;2023-04-15T03:27:18;10.43;;;9.30;;
57730;SDS011;43570;47.476;19.040;2023-04-15T03:29:44;10.57;;;9.48;;
57730;SDS011;43570;47.476;19.040;2023-04-15T03:32:09;12.05;;;9.45;;
57730;SDS011;43570;47.476;19.040;2023-04-15T03:34:36;9.75;;;8.73;;
57730;SDS011;43570;47.476;19.040;2023-04-15T03:37:01;10.60;;;9.50;;
57730;SDS011;43570;47.476;19.040;2023-04-15T03:39:26;10.52;;;9.35;;
57730;SDS011;43570;47.476;19.040;2023-04-15T03:41:52;10.80;;;9.70;;
57730;SDS011;43570;47.476;19.040;2023-04-15T03:44:17;10.65;;;9.38;;
57730;SDS011;43570;47.476;19.040;2023-04-15T03:46:42;11.12;;;9.50;;
57730;SDS011;43570;47.476;19.040;2023-04-15T03:49:08;11.27;;;9.80;;
57730;SDS011;43570;47.476;19.040;2023-04-15T03:51:33;12.23;;;9.60;;
57730;SDS011;43570;47.476;19.040;2023-04-15T03:53:59;11.27;;;9.25;;
57730;SDS011;43570;47.476;19.040;2023-04-15T03:56:26;10.48;;;9.38;;
57730;SDS011;43570;47.476;19.040;2023-04-15T03:58:51;9.95;;;8.93;;
57730;SDS011;43570;47.476;19.040;2023-04-15T04:01:17;10.10;;;9.10;;
57730;SDS011;43570;47.476;19.040;2023-04-15T04:03:43;10.85;;;9.40;;
57730;SDS011;43570;47.476;19.040;2023-04-15T04:06:08;9.93;;;8.55;;
57730;SDS011;43570;47.476;19.040;2023-04-15T04:08:36;10.82;;;9.80;;
57730;SDS011;43570;47.476;19.040;2023-04-15T04:11:01;10.52;;;9.35;;
57730;SDS011;43570;47.476;19.040;2023-04-15T04:13:27;9.65;;;8.65;;
57730;SDS011;43570;47.476;19.040;2023-04-15T04:15:52;9.35;;;8.45;;
57730;SDS011;43570;47.476;19.040;2023-04-15T04:18:17;10.07;;;9.07;;
57730;SDS011;43570;47.476;19.040;2023-04-15T04:20:43;10.38;;;9.27;;
57730;SDS011;43570;47.476;19.040;2023-04-15T04:23:08;10.40;;;9.40;;
57730;SDS011;43570;47.476;19.040;2023-04-15T04:25:34;9.60;;;8.60;;
57730;SDS011;43570;47.476;19.040;2023-04-15T04:27:59;11.52;;;9.27;;
57730;SDS011;43570;47.476;19.040;2023-04-15T04:30:25;11.65;;;9.85;;
57730;SDS011;43570;47.476;19.040;2023-04-15T04:32:50;10.70;;;9.60;;
57730;SDS011;43570;47.476;19.040;2023-04-15T04:35:16;10.80;;;9.00;;
57730;SDS011;43570;47.476;19.040;2023-04-15T04:37:41;10.18;;;9.10;;
57730;SDS011;43570;47.476;19.040;2023-04-15T04:40:07;10.30;;;9.30;;
57730;SDS011;43570;47.476;19.040;2023-04-15T04:42:33;10.27;;;8.85;;
57730;SDS011;43570;47.476;19.040;2023-04-15T04:44:58;10.05;;;9.05;;
57730;SDS011;43570;47.476;19.040;2023-04-15T04:47:24;11.35;;;9.80;;
57730;SDS011;43570;47.476;19.040;2023-04-15T04:49:49;10.88;;;8.95;;
57730;SDS011;43570;47.476;19.040;2023-04-15T04:52:15;10.23;;;9.15;;
57730;SDS011;43570;47.476;19.040;2023-04-15T04:54:40;8.60;;;7.55;;
57730;SDS011;43570;47.476;19.040;2023-04-15T04:57:06;9.23;;;8.32;;
57730;SDS011;43570;47.476;19.040;2023-04-15T04:59:32;9.18;;;8.25;;
57730;SDS011;43570;47.476;19.040;2023-04-15T05:01:57;9.43;;;8.50;;
57730;SDS011;43570;47.476;19.040;2023-04-15T05:04:23;9.30;;;8.23;;
57730;SDS011;43570;47.476;19.040;2023-04-15T05:06:48;8.52;;;7.68;;
57730;SDS011;43570;47.476;19.040;2023-04-15T05:09:14;9.27;;;8.05;;
57730;SDS011;43570;47.476;19.040;2023-04-15T05:11:40;8.68;;;7.78;;
57730;SDS011;43570;47.476;19.040;2023-04-15T05:14:05;8.25;;;7.35;;
57730;SDS011;43570;47.476;19.040;2023-04-15T05:16:30;8.98;;;7.30;;
57730;SDS011;43570;47.476;19.040;2023-04-15T05:18:56;11.18;;;8.07;;
57730;SDS011;43570;47.476;19.040;2023-04-15T05:21:21;9.75;;;8.23;;
57730;SDS011;43570;47.476;19.040;2023-04-15T05:23:47;9.82;;;8.82;;
57730;SDS011;43570;47.476;19.040;2023-04-15T05:26:12;21.98;;;18.12;;
57730;SDS011;43570;47.476;19.040;2023-04-15T05:28:38;9.68;;;8.68;;
57730;SDS011;43570;47.476;19.040;2023-04-15T05:31:03;10.23;;;8.98;;
57730;SDS011;43570;47.476;19.040;2023-04-15T05:33:29;11.80;;;9.07;;
57730;SDS011;43570;47.476;19.040;2023-04-15T05:35:54;10.50;;;9.38;;
57730;SDS011;43570;47.476;19.040;2023-04-15T05:38:20;10.27;;;8.93;;
57730;SDS011;43570;47.476;19.040;2023-04-15T05:40:45;10.43;;;9.32;;
57730;SDS011;43570;47.476;19.040;2023-04-15T05:43:11;12.95;;;10.18;;
57730;SDS011;43570;47.476;19.040;2023-04-15T05:45:36;11.65;;;9.35;;
57730;SDS011;43570;47.476;19.040;2023-04-15T05:48:01;10.52;;;9.27;;
57730;SDS011;43570;47.476;19.040;2023-04-15T05:50:27;11.20;;;9.70;;
57730;SDS011;43570;47.476;19.040;2023-04-15T05:52:52;10.80;;;9.70;;
57730;SDS011;43570;47.476;19.040;2023-04-15T05:55:18;11.93;;;9.77;;
57730;SDS011;43570;47.476;19.040;2023-04-15T05:57:43;10.60;;;9.60;;
57730;SDS011;43570;47.476;19.040;2023-04-15T06:00:08;10.93;;;9.82;;
57730;SDS011;43570;47.476;19.040;2023-04-15T06:02:34;11.82;;;9.95;;
57730;SDS011;43570;47.476;19.040;2023-04-15T06:05:00;10.77;;;9.77;;
57730;SDS011;43570;47.476;19.040;2023-04-15T06:07:25;10.73;;;9.63;;
57730;SDS011;43570;47.476;19.040;2023-04-15T06:09:51;10.55;;;9.45;;
57730;SDS011;43570;47.476;19.040;2023-04-15T06:12:16;9.55;;;8.65;;
57730;SDS011;43570;47.476;19.040;2023-04-15T06:14:41;10.73;;;9.45;;
57730;SDS011;43570;47.476;19.040;2023-04-15T06:17:07;11.10;;;9.55;;
57730;SDS011;43570;47.476;19.040;2023-04-15T06:19:33;11.32;;;10.23;;
57730;SDS011;43570;47.476;19.040;2023-04-15T06:21:59;11.88;;;10.70;;
57730;SDS011;43570;47.476;19.040;2023-04-15T06:24:24;10.43;;;9.43;;
57730;SDS011;43570;47.476;19.040;2023-04-15T06:26:50;11.95;;;10.75;;
57730;SDS011;43570;47.476;19.040;2023-04-15T06:29:15;10.82;;;9.73;;
57730;SDS011;43570;47.476;19.040;2023-04-15T06:31:41;10.43;;;9.23;;
57730;SDS011;43570;47.476;19.040;2023-04-15T06:34:06;9.68;;;8.73;;
57730;SDS011;43570;47.476;19.040;2023-04-15T06:36:32;10.20;;;9.02;;
57730;SDS011;43570;47.476;19.040;2023-04-15T06:38:57;9.30;;;8.32;;
57730;SDS011;43570;47.476;19.040;2023-04-15T06:41:23;9.25;;;8.30;;
57730;SDS011;43570;47.476;19.040;2023-04-15T06:43:48;9.98;;;8.70;;
57730;SDS011;43570;47.476;19.040;2023-04-15T06:46:14;8.90;;;8.00;;
57730;SDS011;43570;47.476;19.040;2023-04-15T06:48:39;8.70;;;7.90;;
57730;SDS011;43570;47.476;19.040;2023-04-15T06:51:05;8.00;;;7.20;;
57730;SDS011;43570;47.476;19.040;2023-04-15T06:53:30;8.73;;;7.72;;
57730;SDS011;43570;47.476;19.040;2023-04-15T06:55:56;8.48;;;6.82;;
57730;SDS011;43570;47.476;19.040;2023-04-15T06:58:21;9.10;;;7.40;;
57730;SDS011;43570;47.476;19.040;2023-04-15T07:00:47;8.18;;;7.35;;
57730;SDS011;43570;47.476;19.040;2023-04-15T07:03:13;8.35;;;6.12;;
57730;SDS011;43570;47.476;19.040;2023-04-15T07:05:39;8.20;;;6.72;;
57730;SDS011;43570;47.476;19.040;2023-04-15T07:08:05;8.00;;;6.50;;
57730;SDS011;43570;47.476;19.040;2023-04-15T07:10:31;8.18;;;6.85;;
57730;SDS011;43570;47.476;19.040;2023-04-15T07:12:57;6.97;;;6.28;;
57730;SDS011;43570;47.476;19.040;2023-04-15T07:15:22;6.57;;;5.78;;
57730;SDS011;43570;47.476;19.040;2023-04-15T07:17:48;6.87;;;6.18;;
57730;SDS011;43570;47.476;19.040;2023-04-15T07:20:13;7.47;;;6.03;;
57730;SDS011;43570;47.476;19.040;2023-04-15T07:22:39;9.55;;;6.18;;
57730;SDS011;43570;47.476;19.040;2023-04-15T07:25:04;8.98;;;6.35;;
57730;SDS011;43570;47.476;19.040;2023-04-15T07:27:30;8.43;;;5.20;;
57730;SDS011;43570;47.476;19.040;2023-04-15T07:29:56;6.57;;;5.12;;
57730;SDS011;43570;47.476;19.040;2023-04-15T07:32:21;6.22;;;5.57;;
57730;SDS011;43570;47.476;19.040;2023-04-15T07:34:47;5.80;;;4.95;;
57730;SDS011;43570;47.476;19.040;2023-04-15T07:37:12;5.90;;;5.00;;
57730;SDS011;43570;47.476;19.040;2023-04-15T07:39:38;6.60;;;4.65;;
57730;SDS011;43570;47.476;19.040;2023-04-15T07:42:04;6.78;;;4.90;;
57730;SDS011;43570;47.476;19.040;2023-04-15T07:44:29;5.00;;;4.00;;
57730;SDS011;43570;47.476;19.040;2023-04-15T07:46:55;5.28;;;3.92;;
57730;SDS011;43570;47.476;19.040;2023-04-15T07:49:21;5.50;;;4.10;;
57730;SDS011;43570;47.476;19.040;2023-04-15T07:51:46;4.70;;;3.33;;
57730;SDS011;43570;47.476;19.040;2023-04-15T07:54:13;4.07;;;3.30;;
57730;SDS011;43570;47.476;19.040;2023-04-15T07:56:38;4.60;;;3.70;;
57730;SDS011;43570;47.476;19.040;2023-04-15T07:59:04;5.07;;;3.92;;
57730;SDS011;43570;47.476;19.040;2023-04-15T08:01:30;5.57;;;3.95;;
57730;SDS011;43570;47.476;19.040;2023-04-15T08:03:56;4.68;;;3.90;;
57730;SDS011;43570;47.476;19.040;2023-04-15T08:06:23;5.37;;;3.65;;
57730;SDS011;43570;47.476;19.040;2023-04-15T08:08:48;4.97;;;4.00;;
57730;SDS011;43570;47.476;19.040;2023-04-15T08:11:13;6.07;;;3.90;;
57730;SDS011;43570;47.476;19.040;2023-04-15T08:13:39;4.53;;;3.17;;
57730;SDS011;43570;47.476;19.040;2023-04-15T08:16:21;4.30;;;3.00;;
57730;SDS011;43570;47.476;19.040;2023-04-15T08:18:48;3.95;;;3.10;;
57730;SDS011;43570;47.476;19.040;2023-04-15T08:21:15;3.83;;;2.75;;
57730;SDS011;43570;47.476;19.040;2023-04-15T08:23:42;3.50;;;2.60;;
57730;SDS011;43570;47.476;19.040;2023-04-15T08:26:08;3.10;;;2.22;;
57730;SDS011;43570;47.476;19.040;2023-04-15T08:28:33;3.17;;;2.28;;
57730;SDS011;43570;47.476;19.040;2023-04-15T08:30:59;5.35;;;2.37;;
57730;SDS011;43570;47.476;19.040;2023-04-15T08:33:25;3.95;;;2.85;;
57730;SDS011;43570;47.476;19.040;2023-04-15T08:35:50;3.65;;;2.55;;
57730;SDS011;43570;47.476;19.040;2023-04-15T08:38:16;4.15;;;2.55;;
57730;SDS011;43570;47.476;19.040;2023-04-15T08:40:43;4.37;;;2.67;;
57730;SDS011;43570;47.476;19.040;2023-04-15T08:43:10;4.15;;;2.62;;
57730;SDS011;43570;47.476;19.040;2023-04-15T08:45:44;5.50;;;3.28;;
57730;SDS011;43570;47.476;19.040;2023-04-15T08:48:12;4.20;;;3.47;;
57730;SDS011;43570;47.476;19.040;2023-04-15T08:50:40;7.00;;;4.40;;
57730;SDS011;43570;47.476;19.040;2023-04-15T08:53:06;6.82;;;4.82;;
57730;SDS011;43570;47.476;19.040;2023-04-15T08:55:32;7.50;;;5.37;;
57730;SDS011;43570;47.476;19.040;2023-04-15T08:58:00;6.82;;;4.68;;
57730;SDS011;43570;47.476;19.040;2023-04-15T09:00:26;5.55;;;4.18;;
57730;SDS011;43570;47.476;19.040;2023-04-15T09:02:55;4.95;;;3.80;;
57730;SDS011;43570;47.476;19.040;2023-04-15T09:05:21;6.05;;;4.10;;
57730;SDS011;43570;47.476;19.040;2023-04-15T09:07:47;5.15;;;3.37;;
57730;SDS011;43570;47.476;19.040;2023-04-15T09:10:12;4.10;;;3.20;;
57730;SDS011;43570;47.476;19.040;2023-04-15T09:12:38;5.50;;;3.90;;
57730;SDS011;43570;47.476;19.040;2023-04-15T09:15:03;5.57;;;3.70;;
57730;SDS011;43570;47.476;19.040;2023-04-15T09:17:33;4.53;;;3.58;;
57730;SDS011;43570;47.476;19.040;2023-04-15T09:22:34;4.12;;;3.22;;
57730;SDS011;43570;47.476;19.040;2023-04-15T09:25:00;3.83;;;3.08;;
57730;SDS011;43570;47.476;19.040;2023-04-15T09:27:25;3.65;;;2.45;;
57730;SDS011;43570;47.476;19.040;2023-04-15T09:29:52;3.10;;;2.30;;
57730;SDS011;43570;47.476;19.040;2023-04-15T09:32:18;3.58;;;2.40;;
57730;SDS011;43570;47.476;19.040;2023-04-15T09:34:45;4.25;;;2.90;;
57730;SDS011;43570;47.476;19.040;2023-04-15T09:37:10;5.68;;;3.30;;
57730;SDS011;43570;47.476;19.040;2023-04-15T09:39:50;7.32;;;5.47;;
57730;SDS011;43570;47.476;19.040;2023-04-15T09:42:16;7.20;;;5.28;;
57730;SDS011;43570;47.476;19.040;2023-04-15T09:44:48;7.45;;;5.05;;
57730;SDS011;43570;47.476;19.040;2023-04-15T09:47:30;7.12;;;5.07;;
57730;SDS011;43570;47.476;19.040;2023-04-15T09:49:56;8.07;;;5.05;;
57730;SDS011;43570;47.476;19.040;2023-04-15T09:52:23;5.47;;;4.03;;
57730;SDS011;43570;47.476;19.040;2023-04-15T09:54:49;5.43;;;3.50;;
57730;SDS011;43570;47.476;19.040;2023-04-15T09:57:17;4.73;;;3.27;;
57730;SDS011;43570;47.476;19.040;2023-04-15T09:59:42;3.80;;;2.80;;
57730;SDS011;43570;47.476;19.040;2023-04-15T10:02:08;3.62;;;2.50;;
57730;SDS011;43570;47.476;19.040;2023-04-15T10:04:34;3.87;;;2.80;;
57730;SDS011;43570;47.476;19.040;2023-04-15T10:07:01;2.95;;;2.60;;
57730;SDS011;43570;47.476;19.040;2023-04-15T10:09:29;4.70;;;2.20;;
57730;SDS011;43570;47.476;19.040;2023-04-15T10:11:54;3.65;;;2.08;;
57730;SDS011;43570;47.476;19.040;2023-04-15T10:14:20;3.33;;;2.28;;
57730;SDS011;43570;47.476;19.040;2023-04-15T10:16:45;2.83;;;1.92;;
57730;SDS011;43570;47.476;19.040;2023-04-15T10:19:13;3.05;;;2.00;;
57730;SDS011;43570;47.476;19.040;2023-04-15T10:21:40;2.42;;;1.60;;
57730;SDS011;43570;47.476;19.040;2023-04-15T10:24:06;1.90;;;1.40;;
57730;SDS011;43570;47.476;19.040;2023-04-15T10:26:32;1.85;;;1.40;;
57730;SDS011;43570;47.476;19.040;2023-04-15T10:28:58;1.95;;;1.33;;
57730;SDS011;43570;47.476;19.040;2023-04-15T10:31:24;1.35;;;1.10;;
57730;SDS011;43570;47.476;19.040;2023-04-15T10:33:50;1.30;;;1.00;;
57730;SDS011;43570;47.476;19.040;2023-04-15T10:36:15;1.27;;;1.02;;
57730;SDS011;43570;47.476;19.040;2023-04-15T10:38:41;2.05;;;1.15;;
57730;SDS011;43570;47.476;19.040;2023-04-15T10:41:21;2.25;;;1.40;;
57730;SDS011;43570;47.476;19.040;2023-04-15T10:44:00;2.53;;;1.60;;
57730;SDS011;43570;47.476;19.040;2023-04-15T10:46:36;2.55;;;1.60;;
57730;SDS011;43570;47.476;19.040;2023-04-15T10:51:39;1.85;;;1.30;;
57730;SDS011;43570;47.476;19.040;2023-04-15T10:54:12;2.58;;;1.58;;
57730;SDS011;43570;47.476;19.040;2023-04-15T10:57:29;1.92;;;1.70;;
57730;SDS011;43570;47.476;19.040;2023-04-15T11:05:13;2.30;;;1.40;;
57730;SDS011;43570;47.476;19.040;2023-04-15T11:12:50;2.30;;;1.30;;
57730;SDS011;43570;47.476;19.040;2023-04-15T11:17:59;1.48;;;1.23;;
57730;SDS011;43570;47.476;19.040;2023-04-15T11:20:40;1.65;;;1.10;;
57730;SDS011;43570;47.476;19.040;2023-04-15T11:23:07;1.60;;;1.10;;
57730;SDS011;43570;47.476;19.040;2023-04-15T11:25:33;1.92;;;1.02;;
57730;SDS011;43570;47.476;19.040;2023-04-15T11:27:59;2.15;;;0.98;;
57730;SDS011;43570;47.476;19.040;2023-04-15T11:30:27;1.70;;;1.20;;
57730;SDS011;43570;47.476;19.040;2023-04-15T11:32:56;1.45;;;1.20;;
57730;SDS011;43570;47.476;19.040;2023-04-15T11:35:25;2.05;;;1.35;;
57730;SDS011;43570;47.476;19.040;2023-04-15T11:37:51;2.83;;;1.80;;
57730;SDS011;43570;47.476;19.040;2023-04-15T11:40:24;8.70;;;5.95;;
57730;SDS011;43570;47.476;19.040;2023-04-15T11:45:35;2.10;;;1.42;;
57730;SDS011;43570;47.476;19.040;2023-04-15T11:48:08;2.12;;;1.25;;
57730;SDS011;43570;47.476;19.040;2023-04-15T11:50:34;1.40;;;1.30;;
57730;SDS011;43570;47.476;19.040;2023-04-15T11:53:01;1.90;;;1.20;;
57730;SDS011;43570;47.476;19.040;2023-04-15T11:55:28;1.17;;;1.08;;
57730;SDS011;43570;47.476;19.040;2023-04-15T12:01:04;1.27;;;1.12;;
57730;SDS011;43570;47.476;19.040;2023-04-15T12:11:15;2.37;;;1.70;;
57730;SDS011;43570;47.476;19.040;2023-04-15T12:13:48;3.85;;;2.08;;
57730;SDS011;43570;47.476;19.040;2023-04-15T12:16:18;2.90;;;1.80;;
57730;SDS011;43570;47.476;19.040;2023-04-15T12:18:44;1.95;;;1.70;;
57730;SDS011;43570;47.476;19.040;2023-04-15T12:21:11;3.05;;;1.90;;
57730;SDS011;43570;47.476;19.040;2023-04-15T12:23:37;2.60;;;1.87;;
57730;SDS011;43570;47.476;19.040;2023-04-15T12:26:06;3.42;;;1.70;;
57730;SDS011;43570;47.476;19.040;2023-04-15T12:28:35;2.20;;;1.50;;
57730;SDS011;43570;47.476;19.040;2023-04-15T12:31:05;1.70;;;1.50;;
57730;SDS011;43570;47.476;19.040;2023-04-15T12:33:33;3.05;;;1.73;;
57730;SDS011;43570;47.476;19.040;2023-04-15T12:35:58;1.87;;;1.50;;
57730;SDS011;43570;47.476;19.040;2023-04-15T12:38:24;2.90;;;1.77;;
57730;SDS011;43570;47.476;19.040;2023-04-15T12:40:49;1.92;;;1.37;;
57730;SDS011;43570;47.476;19.040;2023-04-15T12:43:15;3.05;;;1.73;;
57730;SDS011;43570;47.476;19.040;2023-04-15T12:45:40;2.25;;;1.50;;
57730;SDS011;43570;47.476;19.040;2023-04-15T12:48:06;3.03;;;1.60;;
57730;SDS011;43570;47.476;19.040;2023-04-15T12:50:33;1.83;;;1.40;;
57730;SDS011;43570;47.476;19.040;2023-04-15T12:52:59;1.73;;;1.40;;
57730;SDS011;43570;47.476;19.040;2023-04-15T12:55:24;2.12;;;1.52;;
57730;SDS011;43570;47.476;19.040;2023-04-15T12:57:50;4.43;;;1.85;;
57730;SDS011;43570;47.476;19.040;2023-04-15T13:00:16;2.62;;;1.60;;
57730;SDS011;43570;47.476;19.040;2023-04-15T13:02:45;2.87;;;1.80;;
57730;SDS011;43570;47.476;19.040;2023-04-15T13:05:10;2.72;;;1.85;;
57730;SDS011;43570;47.476;19.040;2023-04-15T13:07:38;2.00;;;1.67;;
57730;SDS011;43570;47.476;19.040;2023-04-15T13:10:04;2.28;;;1.80;;
57730;SDS011;43570;47.476;19.040;2023-04-15T13:12:30;2.30;;;1.60;;
57730;SDS011;43570;47.476;19.040;2023-04-15T13:14:57;1.60;;;1.50;;
57730;SDS011;43570;47.476;19.040;2023-04-15T13:17:22;2.17;;;1.65;;
57730;SDS011;43570;47.476;19.040;2023-04-15T13:19:47;1.92;;;1.55;;
57730;SDS011;43570;47.476;19.040;2023-04-15T13:22:13;3.30;;;1.85;;
57730;SDS011;43570;47.476;19.040;2023-04-15T13:24:39;2.60;;;1.50;;
57730;SDS011;43570;47.476;19.040;2023-04-15T13:27:04;2.95;;;1.90;;
57730;SDS011;43570;47.476;19.040;2023-04-15T13:29:31;4.12;;;1.87;;
57730;SDS011;43570;47.476;19.040;2023-04-15T13:31:56;2.53;;;1.87;;
57730;SDS011;43570;47.476;19.040;2023-04-15T13:34:22;2.58;;;1.55;;
57730;SDS011;43570;47.476;19.040;2023-04-15T13:36:47;2.40;;;1.60;;
57730;SDS011;43570;47.476;19.040;2023-04-15T13:39:12;2.05;;;1.75;;
57730;SDS011;43570;47.476;19.040;2023-04-15T13:41:38;3.62;;;1.65;;
57730;SDS011;43570;47.476;19.040;2023-04-15T13:44:04;1.83;;;1.50;;
57730;SDS011;43570;47.476;19.040;2023-04-15T13:46:30;2.15;;;1.60;;
57730;SDS011;43570;47.476;19.040;2023-04-15T13:48:55;1.80;;;1.40;;
57730;SDS011;43570;47.476;19.040;2023-04-15T13:51:21;3.00;;;1.87;;
57730;SDS011;43570;47.476;19.040;2023-04-15T13:53:46;3.30;;;1.87;;
57730;SDS011;43570;47.476;19.040;2023-04-15T13:56:12;3.65;;;2.10;;
57730;SDS011;43570;47.476;19.040;2023-04-15T13:58:37;3.30;;;2.28;;
57730;SDS011;43570;47.476;19.040;2023-04-15T14:01:03;3.60;;;2.50;;
57730;SDS011;43570;47.476;19.040;2023-04-15T14:03:29;3.37;;;2.53;;
57730;SDS011;43570;47.476;19.040;2023-04-15T14:05:54;4.93;;;3.50;;
57730;SDS011;43570;47.476;19.040;2023-04-15T14:08:21;4.55;;;3.03;;
57730;SDS011;43570;47.476;19.040;2023-04-15T14:10:47;2.35;;;1.70;;
57730;SDS011;43570;47.476;19.040;2023-04-15T14:13:13;2.87;;;1.65;;
57730;SDS011;43570;47.476;19.040;2023-04-15T14:15:39;2.58;;;1.65;;
57730;SDS011;43570;47.476;19.040;2023-04-15T14:18:05;3.30;;;1.77;;
57730;SDS011;43570;47.476;19.040;2023-04-15T14:20:31;3.22;;;1.92;;
57730;SDS011;43570;47.476;19.040;2023-04-15T14:22:56;2.90;;;1.70;;
57730;SDS011;43570;47.476;19.040;2023-04-15T14:25:22;3.25;;;1.85;;
57730;SDS011;43570;47.476;19.040;2023-04-15T14:27:47;3.17;;;1.60;;
57730;SDS011;43570;47.476;19.040;2023-04-15T14:30:13;3.67;;;2.00;;
57730;SDS011;43570;47.476;19.040;2023-04-15T14:32:38;4.25;;;3.12;;
57730;SDS011;43570;47.476;19.040;2023-04-15T14:35:04;6.53;;;4.07;;
57730;SDS011;43570;47.476;19.040;2023-04-15T14:37:30;7.40;;;5.10;;
57730;SDS011;43570;47.476;19.040;2023-04-15T14:39:55;8.60;;;5.62;;
57730;SDS011;43570;47.476;19.040;2023-04-15T14:42:20;7.65;;;5.95;;
57730;SDS011;43570;47.476;19.040;2023-04-15T14:44:46;6.80;;;5.22;;
57730;SDS011;43570;47.476;19.040;2023-04-15T14:47:12;6.43;;;4.60;;
57730;SDS011;43570;47.476;19.040;2023-04-15T14:49:37;6.15;;;4.65;;
57730;SDS011;43570;47.476;19.040;2023-04-15T14:52:03;7.25;;;4.43;;
57730;SDS011;43570;47.476;19.040;2023-04-15T14:54:28;6.03;;;4.30;;